トロムソ の空港の天気 - METARとTAF

トロムソ空港 ( ENTC / TOS ) - ノルウェー トロムス県トロムソ
飛行場実況気象(Metar)
観測時間04/21 18:50 CEST (04/21 16:50 UTC)
風向・風速南西 9m/s
視程7000m
天気現象弱いしゅう雨
全天の4割程度の雲 雲底高度 490m
全天の8割程度の雲 雲底高度 1010m
気温4℃
湿度87%
気圧1008hPa
METARENTC 211650Z 22017KT 7000 -SHRA SCT016 BKN033 04/02 Q1008 NOSIG RMK WIND 2600FT 24028G39KT
過去の天気等 Google飛行場航空写真 Wunderground天気予報

過去48時間のMETAR

飛行場予報(TAF)
発表時間: -
21日14時 CEST ~ 22日8時 CEST に一時的に
風向・風速南西 13m/s
21日14時 CEST ~ 22日14時 CEST に一時的に
風向・風速不定 4m/s
TAF ENTC 2112/2212 22015KT 9999 -SHRA FEW010TCU BKN020
TEMPO 2112/2206 23025KT
TEMPO 2112/2212 VRB08KT